Terminal Aerodrome Forecast
Issued by NWS Twin Cities, MN

Home | Current Version | Previous Version | Graphics & Text | Print | Product List | Glossary On
Versions: 1 2 3 4 5 6 7 8 9 10 11 12 13 14
864
FTUS43 KMPX 091137
TAFEAU
TAF
KEAU 091137Z 0912/1012 33013KT P6SM BKN080
     FM091700 33010G16KT P6SM BKN050
     FM100100 32009KT P6SM SKC=

USA.gov is the U.S. government's official web portal to all federal, state and local government web resources and services.